Grande Europa — ICGE — position and weather

sailwx.info

Track history (hours):
 
Tides and Currents Weather Stations Pressure Air Temp Water Temp Dewpoint Dewpoint Depression Visibility Wind Speed Wind Dir Waves Ship Positions

Grande Europa

Last reported at 2015-Apr-18 12:31 UTC. Time now 2015-Apr-18 13:08 UTC.
Position N 38°31' W 008°53'.

Length 183 m; draft 8.6 m.

Type: Ship (hazmat cat A). MMSI: 247206000.

Date/timePositionNaut miles runAvg speedWind from/ knotsBaromVisibWave heightAir tempDewpointWater temp
2015-Apr-18 12:31N 38°31' W 008°53'0 0.0
2015-Apr-18 11:31N 38°31' W 008°53'0 0.0
2015-Apr-18 10:31N 38°31' W 008°53'0 0.0
2015-Apr-18 09:25N 38°31' W 008°53'0 0.0
2015-Apr-18 08:31N 38°31' W 008°53'0 0.0
2015-Apr-18 07:31N 38°31' W 008°53'0 0.0
2015-Apr-18 06:33N 38°31' W 008°53'3 2.6
2015-Apr-18 05:33N 38°29' W 008°56'1211.8
2015-Apr-18 04:33N 38°18' W 009°01'1616.4
2015-Apr-18 03:33N 38°02' W 009°04'8 8.1
2015-Apr-18 02:33N 37°55' W 009°07'1515.5
2015-Apr-18 01:33N 37°39' W 009°11'1313.3
2015-Apr-18 00:33N 37°28' W 009°19'3215.2
2015-Apr-17 22:27N 36°56' W 009°19'1415.4
2015-Apr-17 21:33N 36°45' W 009°08'1615.9
2015-Apr-17 20:33N 36°39' W 008°50'7116.2
2015-Apr-17 16:11N 36°17' W 007°26'9516.9
2015-Apr-17 10:33N 35°59' W 005°31'1615.7
2015-Apr-17 09:33N 36°02' W 005°12'18517.7
2015-Apr-16 23:07N 36°54' W 001°31'1217.6
2015-Apr-16 22:25N 37°03' W 001°20'1517.6
2015-Apr-16 21:33N 37°12' W 001°06'1817.8
2015-Apr-16 20:33N 37°24' W 000°48'1817.9
2015-Apr-16 19:33N 37°36' W 000°32'1817.8
2015-Apr-16 18:33N 37°51' W 000°19'2117.8
2015-Apr-16 17:22N 38°08' W 000°04'7218.1
2015-Apr-16 13:23N 39°04' E 000°54'1518.2
2015-Apr-16 12:33N 39°14' E 001°09'1818.0
2015-Apr-16 11:33N 39°26' E 001°27'1918.3
2015-Apr-16 10:32N 39°38' E 001°45'1717.8
2015-Apr-16 09:33N 39°49' E 002°02'1817.8
2015-Apr-16 08:33N 40°01' E 002°20'1817.9
2015-Apr-16 07:34N 40°12' E 002°37'1817.7
2015-Apr-16 06:33N 40°24' E 002°55'1818.0
2015-Apr-16 05:33N 40°36' E 003°13'1818.3
2015-Apr-16 04:33N 40°48' E 003°31'2318.8
2015-Apr-16 03:19N 41°03' E 003°54'3417.2
2015-Apr-16 01:21N 41°25' E 004°28'1817.8
2015-Apr-16 00:22N 41°37' E 004°46'3218.0
2015-Apr-15 22:33N 41°58' E 005°19'1818.3
2015-Apr-15 21:34N 42°10' E 005°37'1918.5
2015-Apr-15 20:33N 42°22' E 005°56'1818.5
2015-Apr-15 19:33N 42°34' E 006°15'1818.3
2015-Apr-15 18:33N 42°46' E 006°34'1918.6
2015-Apr-15 17:33N 42°59' E 006°53'1918.9
2015-Apr-15 16:33N 43°11' E 007°13'2018.8
2015-Apr-15 15:30N 43°24' E 007°33'1818.7
2015-Apr-15 14:33N 43°36' E 007°51'1918.7
2015-Apr-15 13:33N 43°47' E 008°11'1918.8
2015-Apr-15 12:33N 44°04' E 008°25'1615.9
2015-Apr-15 11:33N 44°19' E 008°31'1 0.7
2015-Apr-15 10:30N 44°19' E 008°30'0 0.0
2015-Apr-15 09:33N 44°19' E 008°30'0 0.0
2015-Apr-15 08:33N 44°19' E 008°30'0 0.0
2015-Apr-15 07:27N 44°19' E 008°30'0 0.0
2015-Apr-15 06:33N 44°19' E 008°30'0 0.0
2015-Apr-15 05:33N 44°19' E 008°30'0 0.0
2015-Apr-15 04:33N 44°19' E 008°30'1 1.1
2015-Apr-15 03:33N 44°18' E 008°31'1212.0
2015-Apr-15 02:33N 44°08' E 008°41'9 9.6
2015-Apr-15 01:33N 43°60' E 008°47'1717.1
2015-Apr-15 00:33N 43°45' E 008°59'1817.5
2015-Apr-14 23:32N 43°30' E 009°12'1717.6
2015-Apr-14 22:33N 43°15' E 009°25'1717.5
2015-Apr-14 21:33N 43°00' E 009°37'1918.2
2015-Apr-14 20:31N 42°43' E 009°48'1717.9
2015-Apr-14 19:33N 42°26' E 009°55'3817.9
2015-Apr-14 17:26N 42°00' E 010°31'1718.5
2015-Apr-14 16:33N 41°50' E 010°49'1818.0
2015-Apr-14 15:33N 41°41' E 011°09'3618.1
2015-Apr-14 13:32N 41°20' E 011°49'1818.1
2015-Apr-14 12:33N 41°10' E 012°09'3617.9
2015-Apr-14 10:34N 40°50' E 012°48'1817.5
2015-Apr-14 09:33N 40°43' E 013°09'1717.2
2015-Apr-14 08:33N 40°38' E 013°31'1717.5
2015-Apr-14 07:34N 40°33' E 013°53'1917.2
2015-Apr-14 06:26N 40°30' E 014°18'21 0.7
2015-Apr-13 02:32N 40°35' E 014°44'1816.0
2015-Apr-13 01:24N 40°17' E 014°44'14415.6
2015-Apr-12 16:11N 37°58' E 015°37'  
2015-Apr-10 11:33N 34°30' E 032°34'1717.6
2015-Apr-10 10:34N 34°30' E 032°55'1111.0
2015-Apr-10 09:33N 34°39' E 033°02'1 0.8
2015-Apr-10 08:33N 34°39' E 033°01'0 0.0
2015-Apr-10 07:33N 34°39' E 033°01'0 0.0
2015-Apr-10 06:33N 34°39' E 033°01'0 0.0
2015-Apr-10 05:33N 34°39' E 033°01'0 0.3
2015-Apr-10 04:33N 34°39' E 033°01'3 3.3
2015-Apr-10 03:33N 34°39' E 033°05'1313.0
2015-Apr-10 02:33N 34°26' E 033°07'173 5.1
2015-Apr-08 16:31N 31°50' E 034°39'0 0.0
2015-Apr-08 15:33N 31°50' E 034°39'0 0.0
2015-Apr-08 14:24N 31°50' E 034°39'0 0.0
2015-Apr-08 13:34N 31°50' E 034°39'  
Track history (hours):
 
Tides and Currents Weather Stations Pressure Air Temp Water Temp Dewpoint Dewpoint Depression Visibility Wind Speed Wind Dir Waves Ship Positions

Grande Europa

Last reported at 2015-Apr-18 12:31 UTC. Time now 2015-Apr-18 13:08 UTC.
Position N 38°31' W 008°53'.

Length 183 m; draft 8.6 m.

Type: Ship (hazmat cat A). MMSI: 247206000.

Date/timePositionNaut miles runAvg speedWind from/ knotsBaromVisibWave heightAir tempDewpointWater temp
2015-Apr-18 12:31N 38°31' W 008°53'0 0.0
2015-Apr-18 11:31N 38°31' W 008°53'0 0.0
2015-Apr-18 10:31N 38°31' W 008°53'0 0.0
2015-Apr-18 09:25N 38°31' W 008°53'0 0.0
2015-Apr-18 08:31N 38°31' W 008°53'0 0.0
2015-Apr-18 07:31N 38°31' W 008°53'0 0.0
2015-Apr-18 06:33N 38°31' W 008°53'3 2.6
2015-Apr-18 05:33N 38°29' W 008°56'1211.8
2015-Apr-18 04:33N 38°18' W 009°01'1616.4
2015-Apr-18 03:33N 38°02' W 009°04'8 8.1
2015-Apr-18 02:33N 37°55' W 009°07'1515.5
2015-Apr-18 01:33N 37°39' W 009°11'1313.3
2015-Apr-18 00:33N 37°28' W 009°19'3215.2
2015-Apr-17 22:27N 36°56' W 009°19'1415.4
2015-Apr-17 21:33N 36°45' W 009°08'1615.9
2015-Apr-17 20:33N 36°39' W 008°50'7116.2
2015-Apr-17 16:11N 36°17' W 007°26'9516.9
2015-Apr-17 10:33N 35°59' W 005°31'1615.7
2015-Apr-17 09:33N 36°02' W 005°12'18517.7
2015-Apr-16 23:07N 36°54' W 001°31'1217.6
2015-Apr-16 22:25N 37°03' W 001°20'1517.6
2015-Apr-16 21:33N 37°12' W 001°06'1817.8
2015-Apr-16 20:33N 37°24' W 000°48'1817.9
2015-Apr-16 19:33N 37°36' W 000°32'1817.8
2015-Apr-16 18:33N 37°51' W 000°19'2117.8
2015-Apr-16 17:22N 38°08' W 000°04'7218.1
2015-Apr-16 13:23N 39°04' E 000°54'1518.2
2015-Apr-16 12:33N 39°14' E 001°09'1818.0
2015-Apr-16 11:33N 39°26' E 001°27'1918.3
2015-Apr-16 10:32N 39°38' E 001°45'1717.8
2015-Apr-16 09:33N 39°49' E 002°02'1817.8
2015-Apr-16 08:33N 40°01' E 002°20'1817.9
2015-Apr-16 07:34N 40°12' E 002°37'1817.7
2015-Apr-16 06:33N 40°24' E 002°55'1818.0
2015-Apr-16 05:33N 40°36' E 003°13'1818.3
2015-Apr-16 04:33N 40°48' E 003°31'2318.8
2015-Apr-16 03:19N 41°03' E 003°54'3417.2
2015-Apr-16 01:21N 41°25' E 004°28'1817.8
2015-Apr-16 00:22N 41°37' E 004°46'3218.0
2015-Apr-15 22:33N 41°58' E 005°19'1818.3
2015-Apr-15 21:34N 42°10' E 005°37'1918.5
2015-Apr-15 20:33N 42°22' E 005°56'1818.5
2015-Apr-15 19:33N 42°34' E 006°15'1818.3
2015-Apr-15 18:33N 42°46' E 006°34'1918.6
2015-Apr-15 17:33N 42°59' E 006°53'1918.9
2015-Apr-15 16:33N 43°11' E 007°13'2018.8
2015-Apr-15 15:30N 43°24' E 007°33'1818.7
2015-Apr-15 14:33N 43°36' E 007°51'1918.7
2015-Apr-15 13:33N 43°47' E 008°11'1918.8
2015-Apr-15 12:33N 44°04' E 008°25'1615.9
2015-Apr-15 11:33N 44°19' E 008°31'1 0.7
2015-Apr-15 10:30N 44°19' E 008°30'0 0.0
2015-Apr-15 09:33N 44°19' E 008°30'0 0.0
2015-Apr-15 08:33N 44°19' E 008°30'0 0.0
2015-Apr-15 07:27N 44°19' E 008°30'0 0.0
2015-Apr-15 06:33N 44°19' E 008°30'0 0.0
2015-Apr-15 05:33N 44°19' E 008°30'0 0.0
2015-Apr-15 04:33N 44°19' E 008°30'1 1.1
2015-Apr-15 03:33N 44°18' E 008°31'1212.0
2015-Apr-15 02:33N 44°08' E 008°41'9 9.6
2015-Apr-15 01:33N 43°60' E 008°47'1717.1
2015-Apr-15 00:33N 43°45' E 008°59'1817.5
2015-Apr-14 23:32N 43°30' E 009°12'1717.6
2015-Apr-14 22:33N 43°15' E 009°25'1717.5
2015-Apr-14 21:33N 43°00' E 009°37'1918.2
2015-Apr-14 20:31N 42°43' E 009°48'1717.9
2015-Apr-14 19:33N 42°26' E 009°55'3817.9
2015-Apr-14 17:26N 42°00' E 010°31'1718.5
2015-Apr-14 16:33N 41°50' E 010°49'1818.0
2015-Apr-14 15:33N 41°41' E 011°09'3618.1
2015-Apr-14 13:32N 41°20' E 011°49'1818.1
2015-Apr-14 12:33N 41°10' E 012°09'3617.9
2015-Apr-14 10:34N 40°50' E 012°48'1817.5
2015-Apr-14 09:33N 40°43' E 013°09'1717.2
2015-Apr-14 08:33N 40°38' E 013°31'1717.5
2015-Apr-14 07:34N 40°33' E 013°53'1917.2
2015-Apr-14 06:26N 40°30' E 014°18'21 0.7
2015-Apr-13 02:32N 40°35' E 014°44'1816.0
2015-Apr-13 01:24N 40°17' E 014°44'14415.6
2015-Apr-12 16:11N 37°58' E 015°37'  
2015-Apr-10 11:33N 34°30' E 032°34'1717.6
2015-Apr-10 10:34N 34°30' E 032°55'1111.0
2015-Apr-10 09:33N 34°39' E 033°02'1 0.8
2015-Apr-10 08:33N 34°39' E 033°01'0 0.0
2015-Apr-10 07:33N 34°39' E 033°01'0 0.0
2015-Apr-10 06:33N 34°39' E 033°01'0 0.0
2015-Apr-10 05:33N 34°39' E 033°01'0 0.3
2015-Apr-10 04:33N 34°39' E 033°01'3 3.3
2015-Apr-10 03:33N 34°39' E 033°05'1313.0
2015-Apr-10 02:33N 34°26' E 033°07'173 5.1
2015-Apr-08 16:31N 31°50' E 034°39'0 0.0
2015-Apr-08 15:33N 31°50' E 034°39'0 0.0
2015-Apr-08 14:24N 31°50' E 034°39'0 0.0
2015-Apr-08 13:34N 31°50' E 034°39'  

Dump ship's entire track history